Time;durP1;ratioP1;P1;durP2;ratioP2;P2;SDS_P1;SDS_P2;PMS_P1;PMS_P2;Temp;Humidity;BMP_temperature;BMP_pressure;BME280_temperature;BME280_humidity;BME280_pressure;Samples;Min_cycle;Max_cycle;Signal;HPM_P1;HPM_P2
2023/12/04 00:02:13;;;;;;;73.72;33.78;;;0.80;99.90;;;;;;5114167;28;20051;-74
2023/12/04 00:04:39;;;;;;;66.22;31.60;;;0.80;99.90;;;;;;5113337;28;20165;-73
2023/12/04 00:07:04;;;;;;;67.82;32.05;;;0.70;99.90;;;;;;5113057;28;20049;-73
2023/12/04 00:09:30;;;;;;;72.90;33.90;;;0.70;99.90;;;;;;5112421;28;20028;-74
2023/12/04 00:11:55;;;;;;;71.35;32.83;;;0.70;99.90;;;;;;5111691;28;20081;-73
2023/12/04 00:14:21;;;;;;;73.88;33.72;;;0.70;99.90;;;;;;5111687;28;20393;-73
2023/12/04 00:16:47;;;;;;;70.95;32.30;;;0.60;99.90;;;;;;5111615;28;20136;-74
2023/12/04 00:19:12;;;;;;;69.63;33.05;;;0.60;99.90;;;;;;5111304;28;20042;-73
2023/12/04 00:21:38;;;;;;;67.78;31.52;;;0.60;99.90;;;;;;5111456;28;20059;-74
2023/12/04 00:24:04;;;;;;;66.72;30.95;;;0.50;99.90;;;;;;5111825;28;20081;-74
2023/12/04 00:26:30;;;;;;;65.28;29.67;;;0.50;99.90;;;;;;5111566;28;20091;-73
2023/12/04 00:28:55;;;;;;;62.63;29.75;;;0.50;99.90;;;;;;5111600;28;20513;-73
2023/12/04 00:31:21;;;;;;;64.88;30.17;;;0.50;99.90;;;;;;5112297;28;20062;-74
2023/12/04 00:33:48;;;;;;;59.42;28.83;;;0.50;99.90;;;;;;5111694;28;20106;-73
2023/12/04 00:36:13;;;;;;;65.30;30.05;;;0.50;99.90;;;;;;5111712;28;20024;-74
2023/12/04 00:38:39;;;;;;;62.85;29.48;;;0.50;99.90;;;;;;5112343;28;20582;-74
2023/12/04 00:41:05;;;;;;;64.30;29.65;;;0.50;99.90;;;;;;5112139;28;20068;-74
2023/12/04 00:43:30;;;;;;;58.38;28.35;;;0.50;99.90;;;;;;5115855;28;20102;-74
2023/12/04 00:45:56;;;;;;;63.17;29.98;;;0.50;99.90;;;;;;5115441;28;20027;-73
2023/12/04 00:48:22;;;;;;;64.28;29.02;;;0.40;99.90;;;;;;5115313;28;20031;-74
2023/12/04 00:50:48;;;;;;;57.78;28.13;;;0.40;99.90;;;;;;5115372;28;20490;-73
2023/12/04 00:53:13;;;;;;;56.10;27.65;;;0.40;99.90;;;;;;5115378;28;20027;-75
2023/12/04 00:55:39;;;;;;;58.80;28.27;;;0.30;99.90;;;;;;5115447;28;20370;-73
2023/12/04 00:58:06;;;;;;;59.33;27.58;;;0.30;99.90;;;;;;5116461;28;20024;-74
2023/12/04 01:00:32;;;;;;;57.25;28.98;;;0.30;99.90;;;;;;5115225;28;20335;-74
2023/12/04 01:02:57;;;;;;;60.17;27.85;;;0.30;99.90;;;;;;5116530;28;20065;-74
2023/12/04 01:05:23;;;;;;;60.38;28.50;;;0.30;99.90;;;;;;5107734;28;20023;-74
2023/12/04 01:07:48;;;;;;;61.17;28.90;;;0.40;99.90;;;;;;5096534;28;20016;-73
2023/12/04 01:10:14;;;;;;;57.15;28.20;;;0.20;99.90;;;;;;5094819;28;20031;-73
2023/12/04 01:12:39;;;;;;;56.90;28.38;;;0.20;99.90;;;;;;5094359;28;20032;-74
2023/12/04 01:15:07;;;;;;;53.80;27.48;;;0.20;99.90;;;;;;5095613;28;20031;-74
2023/12/04 01:17:33;;;;;;;62.50;28.83;;;0.10;99.90;;;;;;5096893;28;20032;-73
2023/12/04 01:19:58;;;;;;;62.53;28.88;;;0.10;99.90;;;;;;5095846;28;20031;-72
2023/12/04 01:22:24;;;;;;;64.40;31.63;;;0.10;99.90;;;;;;5096859;28;20029;-73
2023/12/04 01:24:50;;;;;;;58.63;29.65;;;0.00;99.90;;;;;;5096825;28;20031;-72
2023/12/04 01:27:15;;;;;;;63.03;30.67;;;0.10;99.90;;;;;;5094616;28;20537;-73
2023/12/04 01:29:41;;;;;;;65.97;30.58;;;0.00;99.90;;;;;;5094654;28;20020;-74
2023/12/04 01:32:06;;;;;;;67.28;31.00;;;0.00;99.90;;;;;;5094744;28;20028;-74
2023/12/04 01:34:34;;;;;;;62.63;29.38;;;0.00;99.90;;;;;;5094724;28;20415;-74
2023/12/04 01:37:02;;;;;;;62.90;31.10;;;0.00;99.90;;;;;;5093926;28;20086;-73
2023/12/04 01:39:28;;;;;;;63.17;30.15;;;0.00;99.90;;;;;;5093934;28;20035;-73
2023/12/04 01:41:54;;;;;;;64.03;29.60;;;-0.10;99.90;;;;;;5094254;28;20527;-73
2023/12/04 01:44:21;;;;;;;65.07;30.25;;;-0.10;99.90;;;;;;5094584;28;20056;-72
2023/12/04 01:46:47;;;;;;;69.03;30.73;;;-0.10;99.90;;;;;;5094097;28;20020;-72
2023/12/04 01:49:13;;;;;;;63.65;30.00;;;-0.10;99.90;;;;;;5093858;28;20028;-71
2023/12/04 01:51:39;;;;;;;61.70;30.10;;;-0.10;99.90;;;;;;5093534;28;20509;-72
2023/12/04 01:54:05;;;;;;;61.38;29.48;;;-0.10;99.90;;;;;;5093510;28;20035;-73
2023/12/04 01:56:32;;;;;;;61.85;30.17;;;-0.20;99.90;;;;;;5093770;28;20238;-74
2023/12/04 01:58:58;;;;;;;68.90;31.80;;;-0.20;99.90;;;;;;5093313;28;20032;-74
2023/12/04 02:01:25;;;;;;;63.80;30.67;;;-0.20;99.90;;;;;;5093505;28;20046;-74
2023/12/04 02:03:51;;;;;;;62.83;31.05;;;-0.20;99.90;;;;;;5093631;28;20089;-74
2023/12/04 02:06:19;;;;;;;60.92;29.92;;;-0.20;99.90;;;;;;5093522;28;20455;-74
2023/12/04 02:08:47;;;;;;;63.92;30.52;;;-0.30;99.90;;;;;;5093180;28;20012;-73
2023/12/04 02:11:12;;;;;;;61.03;30.45;;;-0.30;99.90;;;;;;5093264;28;20386;-75
2023/12/04 02:13:38;;;;;;;61.17;29.10;;;-0.30;99.90;;;;;;5093352;28;20107;-73
2023/12/04 02:16:08;;;;;;;59.63;30.52;;;-0.40;99.90;;;;;;5093215;28;20031;-73
2023/12/04 02:18:34;;;;;;;59.92;30.08;;;-0.30;99.90;;;;;;5094257;28;20034;-74
2023/12/04 02:21:01;;;;;;;65.78;32.20;;;-0.20;99.90;;;;;;5097595;28;20020;-74
2023/12/04 02:23:27;;;;;;;66.45;32.63;;;-0.30;99.90;;;;;;5093260;28;20016;-73
2023/12/04 02:26:06;;;;;;;62.35;29.85;;;-0.30;99.90;;;;;;5097218;28;20095;-73
2023/12/04 02:28:35;;;;;;;62.38;30.85;;;-0.40;99.90;;;;;;5093178;28;20031;-74
2023/12/04 02:31:03;;;;;;;65.53;32.10;;;-0.40;99.90;;;;;;5092881;28;20024;-74
2023/12/04 02:33:29;;;;;;;63.03;30.38;;;-0.40;99.90;;;;;;5092860;28;20028;-74
2023/12/04 02:35:57;;;;;;;64.95;32.33;;;-0.30;99.90;;;;;;5094853;28;20043;-72
2023/12/04 02:38:23;;;;;;;66.25;31.58;;;-0.30;99.90;;;;;;5092078;28;20078;-73
2023/12/04 02:40:49;;;;;;;62.17;30.15;;;-0.40;99.90;;;;;;5092565;28;20286;-73
2023/12/04 02:43:15;;;;;;;62.05;30.25;;;-0.40;99.90;;;;;;5092668;28;20024;-73
2023/12/04 02:45:40;;;;;;;63.28;29.77;;;-0.40;99.90;;;;;;5092733;28;20024;-74
2023/12/04 02:48:07;;;;;;;67.70;31.83;;;-0.40;99.90;;;;;;5092500;28;20016;-72
2023/12/04 02:50:32;;;;;;;66.95;31.20;;;-0.40;99.90;;;;;;5092440;28;20048;-72
2023/12/04 02:52:58;;;;;;;62.80;29.75;;;-0.40;99.90;;;;;;5092052;28;20064;-72
2023/12/04 02:55:24;;;;;;;63.95;31.75;;;-0.40;99.90;;;;;;5092633;28;20040;-74
2023/12/04 02:57:49;;;;;;;62.25;31.48;;;-0.40;99.90;;;;;;5092643;28;20020;-73
2023/12/04 03:00:15;;;;;;;60.17;29.55;;;-0.40;99.90;;;;;;5097004;28;20032;-72
2023/12/04 03:02:41;;;;;;;64.50;30.27;;;-0.40;99.90;;;;;;5112748;28;20020;-73
2023/12/04 03:05:07;;;;;;;59.75;29.88;;;-0.40;99.90;;;;;;5104860;28;20027;-74
2023/12/04 03:07:32;;;;;;;64.82;30.95;;;-0.40;99.90;;;;;;5099776;28;20030;-73
2023/12/04 03:09:58;;;;;;;66.63;30.15;;;-0.40;99.90;;;;;;5091878;28;20020;-73
2023/12/04 03:12:23;;;;;;;65.25;29.38;;;-0.40;99.90;;;;;;5091933;28;20028;-73
2023/12/04 03:14:49;;;;;;;61.78;29.73;;;-0.40;99.90;;;;;;5093429;28;20027;-74
2023/12/04 03:17:14;;;;;;;65.72;31.50;;;-0.50;99.90;;;;;;5097568;28;20119;-74
2023/12/04 03:19:40;;;;;;;58.35;29.40;;;-0.40;99.90;;;;;;5092313;28;20061;-72
2023/12/04 03:22:07;;;;;;;62.67;30.42;;;-0.50;99.90;;;;;;5092670;28;20135;-74
2023/12/04 03:24:33;;;;;;;65.78;30.40;;;-0.40;99.90;;;;;;5093666;28;20057;-74
2023/12/04 03:26:58;;;;;;;63.70;29.63;;;-0.50;99.90;;;;;;5092945;28;20027;-73
2023/12/04 03:29:24;;;;;;;63.75;31.00;;;-0.40;99.90;;;;;;5092002;28;20082;-73
2023/12/04 03:31:49;;;;;;;59.00;29.45;;;-0.50;99.90;;;;;;5091832;28;20059;-73
2023/12/04 03:34:15;;;;;;;65.70;31.10;;;-0.50;99.90;;;;;;5091903;28;20027;-73
2023/12/04 03:36:41;;;;;;;63.58;30.33;;;-0.50;99.90;;;;;;5091694;28;20500;-72
2023/12/04 03:39:06;;;;;;;66.20;31.17;;;-0.50;99.90;;;;;;5091313;28;20035;-73
2023/12/04 03:41:32;;;;;;;61.42;30.83;;;-0.40;99.90;;;;;;5091531;28;20466;-72
2023/12/04 03:43:57;;;;;;;64.47;30.50;;;-0.40;99.90;;;;;;5091452;28;20027;-73
2023/12/04 03:46:23;;;;;;;59.63;29.25;;;-0.50;99.90;;;;;;5091550;28;20081;-73
2023/12/04 03:48:48;;;;;;;65.30;30.73;;;-0.50;99.90;;;;;;5091505;28;20027;-73
2023/12/04 03:51:14;;;;;;;59.72;29.38;;;-0.60;99.90;;;;;;5091495;28;20020;-73
2023/12/04 03:53:39;;;;;;;60.72;29.42;;;-0.50;99.90;;;;;;5091461;28;20471;-73
2023/12/04 03:56:06;;;;;;;62.83;29.27;;;-0.50;99.90;;;;;;5091377;28;20031;-74
2023/12/04 03:58:32;;;;;;;60.97;29.23;;;-0.50;99.90;;;;;;5091159;28;20510;-72
2023/12/04 04:00:57;;;;;;;54.63;28.05;;;-0.50;99.90;;;;;;5093013;28;20431;-74
2023/12/04 04:03:23;;;;;;;56.92;28.27;;;-0.40;99.90;;;;;;5092433;28;20064;-74
2023/12/04 04:05:48;;;;;;;59.17;28.45;;;-0.40;99.90;;;;;;5091631;28;20029;-70
2023/12/04 04:08:14;;;;;;;55.30;26.05;;;-0.40;99.90;;;;;;5090403;28;20334;-73
2023/12/04 04:10:39;;;;;;;56.33;27.20;;;-0.40;99.90;;;;;;5106381;28;20043;-74
2023/12/04 04:13:05;;;;;;;57.33;27.63;;;-0.40;99.90;;;;;;5091289;28;20021;-73
2023/12/04 04:15:31;;;;;;;51.88;25.98;;;-0.30;99.90;;;;;;5093532;28;20038;-75
2023/12/04 04:17:56;;;;;;;54.70;27.13;;;-0.30;99.90;;;;;;5095472;28;20089;-74
2023/12/04 04:20:22;;;;;;;52.25;26.30;;;-0.30;99.90;;;;;;5095689;28;20133;-75
2023/12/04 04:22:48;;;;;;;51.10;25.42;;;-0.30;99.90;;;;;;5096144;28;20442;-74
2023/12/04 04:25:14;;;;;;;47.65;24.25;;;-0.30;99.90;;;;;;5096366;28;20074;-74
2023/12/04 04:27:39;;;;;;;54.58;25.83;;;-0.20;99.90;;;;;;5094930;28;20052;-75
2023/12/04 04:30:05;;;;;;;47.70;25.20;;;-0.20;99.90;;;;;;5095135;28;20058;-74
2023/12/04 04:32:31;;;;;;;50.65;25.35;;;-0.20;99.90;;;;;;5095317;28;20036;-75
2023/12/04 04:34:57;;;;;;;46.50;23.52;;;-0.20;99.90;;;;;;5095377;28;20137;-73
2023/12/04 04:37:22;;;;;;;48.92;23.88;;;-0.10;99.90;;;;;;5096029;28;20040;-73
2023/12/04 04:39:48;;;;;;;50.75;24.20;;;-0.10;99.90;;;;;;5095067;28;20038;-73
2023/12/04 04:42:14;;;;;;;48.53;24.42;;;-0.10;99.90;;;;;;5095053;28;20579;-73
2023/12/04 04:44:40;;;;;;;45.50;23.98;;;0.00;99.90;;;;;;5095049;28;20024;-74
2023/12/04 04:47:06;;;;;;;51.45;24.33;;;0.00;99.90;;;;;;5101140;28;20020;-73
2023/12/04 04:49:31;;;;;;;51.30;24.20;;;0.00;99.10;;;;;;5115057;28;20028;-74
2023/12/04 04:51:57;;;;;;;49.70;24.67;;;0.00;98.80;;;;;;5104058;28;20028;-74
2023/12/04 04:54:22;;;;;;;50.90;24.20;;;0.00;99.00;;;;;;5094802;28;20364;-73
2023/12/04 04:56:48;;;;;;;49.33;23.98;;;0.00;99.30;;;;;;5095802;28;20020;-74
2023/12/04 04:59:14;;;;;;;56.08;26.00;;;0.10;98.40;;;;;;5098020;28;20148;-72
2023/12/04 05:01:39;;;;;;;48.92;24.23;;;0.10;98.80;;;;;;5095115;28;20027;-73
2023/12/04 05:04:05;;;;;;;47.92;24.50;;;0.10;98.50;;;;;;5096834;28;20538;-73
2023/12/04 05:06:31;;;;;;;47.70;23.92;;;0.20;98.30;;;;;;5094917;28;20020;-72
2023/12/04 05:08:57;;;;;;;47.40;23.80;;;0.20;98.20;;;;;;5098016;28;20020;-73
2023/12/04 05:11:23;;;;;;;48.50;24.42;;;0.20;98.40;;;;;;5097078;28;20027;-72
2023/12/04 05:13:49;;;;;;;48.35;24.80;;;0.20;98.20;;;;;;5094508;28;20023;-72
2023/12/04 05:16:15;;;;;;;49.72;24.98;;;0.20;98.90;;;;;;5094237;28;20479;-72
2023/12/04 05:18:40;;;;;;;53.95;24.63;;;0.20;99.00;;;;;;5093773;28;20091;-72
2023/12/04 05:21:10;;;;;;;51.33;25.38;;;0.20;99.60;;;;;;5096808;28;20047;-75
2023/12/04 05:23:36;;;;;;;50.83;25.15;;;0.30;99.00;;;;;;5096739;28;20012;-74
2023/12/04 05:26:02;;;;;;;50.33;24.45;;;0.30;98.60;;;;;;5094275;28;20047;-73
2023/12/04 05:28:28;;;;;;;50.47;23.85;;;0.30;98.50;;;;;;5101859;28;20097;-75
2023/12/04 05:30:54;;;;;;;49.92;23.85;;;0.30;98.80;;;;;;5113205;28;20032;-74
2023/12/04 05:33:19;;;;;;;51.78;24.65;;;0.30;98.90;;;;;;5097362;28;20031;-75
2023/12/04 05:35:48;;;;;;;49.92;23.75;;;0.30;99.80;;;;;;5113853;28;20073;-74
2023/12/04 05:38:13;;;;;;;50.33;24.05;;;0.40;99.20;;;;;;5116864;28;20031;-75
2023/12/04 05:40:39;;;;;;;48.83;24.08;;;0.40;99.80;;;;;;5097713;28;20036;-77
2023/12/04 05:43:04;;;;;;;49.42;24.33;;;0.40;99.90;;;;;;5098234;28;20024;-78
2023/12/04 05:45:30;;;;;;;47.63;24.35;;;0.40;99.90;;;;;;5100557;28;20024;-75
2023/12/04 05:47:56;;;;;;;43.60;22.70;;;0.40;99.90;;;;;;5103976;28;20036;-76
2023/12/04 05:50:21;;;;;;;53.80;25.83;;;0.40;99.90;;;;;;5099087;28;20103;-75
2023/12/04 05:52:47;;;;;;;48.20;24.10;;;0.40;99.90;;;;;;5096606;28;20107;-76
2023/12/04 05:55:13;;;;;;;47.45;23.77;;;0.40;99.90;;;;;;5113005;28;20148;-76
2023/12/04 05:57:39;;;;;;;43.08;22.63;;;0.40;99.90;;;;;;5105011;28;20035;-73
2023/12/04 06:00:12;;;;;;;48.10;22.13;;;0.40;99.90;;;;;;5105776;28;20031;-74
2023/12/04 06:02:46;;;;;;;50.10;23.60;;;0.50;99.90;;;;;;5114067;28;20034;-75
2023/12/04 06:05:12;;;;;;;47.90;22.13;;;0.50;99.90;;;;;;5116207;28;20454;-76
2023/12/04 06:07:38;;;;;;;46.38;22.58;;;0.50;99.90;;;;;;5116154;28;20065;-74
2023/12/04 06:10:04;;;;;;;47.00;22.42;;;0.50;99.90;;;;;;5115974;28;20023;-76
2023/12/04 06:12:31;;;;;;;50.03;24.13;;;0.50;99.90;;;;;;5113475;28;20507;-74
2023/12/04 06:14:58;;;;;;;48.85;22.92;;;0.50;99.90;;;;;;5115357;28;20445;-73
2023/12/04 06:17:24;;;;;;;46.28;21.83;;;0.50;99.90;;;;;;5113670;28;20087;-73
2023/12/04 06:19:49;;;;;;;56.17;23.40;;;0.50;99.90;;;;;;5113788;28;20027;-76
2023/12/04 06:22:18;;;;;;;47.28;22.52;;;0.50;99.90;;;;;;5102396;28;20060;-76
2023/12/04 06:24:44;;;;;;;51.78;24.38;;;0.50;99.90;;;;;;5101589;28;20024;-76
2023/12/04 06:27:13;;;;;;;53.35;24.30;;;0.50;99.90;;;;;;5096690;28;20440;-76
2023/12/04 06:29:39;;;;;;;52.75;24.50;;;0.40;99.90;;;;;;5097823;28;20039;-75
2023/12/04 06:32:05;;;;;;;52.90;24.60;;;0.40;99.90;;;;;;5109514;28;20028;-74
2023/12/04 06:34:31;;;;;;;50.30;24.05;;;0.40;99.90;;;;;;5101401;28;20079;-76
2023/12/04 06:36:57;;;;;;;56.35;26.55;;;0.40;99.90;;;;;;5103033;28;20055;-77
2023/12/04 06:39:25;;;;;;;54.22;24.35;;;0.30;99.90;;;;;;5109001;28;20028;-74
2023/12/04 06:41:50;;;;;;;56.30;25.17;;;0.20;99.90;;;;;;5101062;28;20024;-76
2023/12/04 06:44:16;;;;;;;58.13;26.15;;;0.20;99.90;;;;;;5110320;28;20424;-73
2023/12/04 06:46:48;;;;;;;57.63;26.30;;;0.20;99.90;;;;;;5103248;28;20020;-74
2023/12/04 06:49:17;;;;;;;57.35;25.63;;;0.20;99.90;;;;;;5109933;28;20062;-73
2023/12/04 06:51:43;;;;;;;59.45;26.13;;;0.30;99.90;;;;;;5106748;28;20338;-74
2023/12/04 06:54:08;;;;;;;54.97;26.25;;;0.30;99.90;;;;;;5102119;28;20027;-74
2023/12/04 06:56:34;;;;;;;65.97;27.30;;;0.30;99.90;;;;;;5113046;28;20033;-74
2023/12/04 06:58:59;;;;;;;61.88;28.02;;;0.20;99.90;;;;;;5092611;28;20453;-74
2023/12/04 07:01:25;;;;;;;61.25;27.65;;;0.20;99.90;;;;;;5105203;28;20107;-74
2023/12/04 07:03:51;;;;;;;70.22;30.33;;;0.10;99.90;;;;;;5105551;28;20028;-73
2023/12/04 07:06:16;;;;;;;55.92;27.35;;;0.10;99.90;;;;;;5109846;28;20470;-74
2023/12/04 07:08:43;;;;;;;70.15;29.17;;;0.10;99.90;;;;;;5112854;28;20024;-74
2023/12/04 07:11:09;;;;;;;63.38;27.33;;;0.10;99.90;;;;;;5118290;28;20142;-76
2023/12/04 07:13:34;;;;;;;66.60;29.05;;;0.10;99.90;;;;;;5108494;28;20489;-73
2023/12/04 07:16:00;;;;;;;64.95;28.67;;;0.10;99.90;;;;;;5113658;28;20024;-74
2023/12/04 07:18:26;;;;;;;63.47;29.08;;;0.10;99.90;;;;;;5111287;28;20114;-77
2023/12/04 07:20:51;;;;;;;57.83;27.30;;;0.10;99.90;;;;;;5098181;28;20032;-73
2023/12/04 07:23:17;;;;;;;67.15;28.83;;;0.10;99.90;;;;;;5092372;28;20446;-77
2023/12/04 07:25:43;;;;;;;68.45;30.35;;;0.20;99.90;;;;;;5092668;28;20102;-77
2023/12/04 07:28:08;;;;;;;65.97;30.05;;;0.20;99.90;;;;;;5092163;28;20093;-74
2023/12/04 07:30:34;;;;;;;60.25;28.77;;;0.20;99.90;;;;;;5092181;28;20028;-71
2023/12/04 07:32:59;;;;;;;62.85;28.85;;;0.20;99.90;;;;;;5091682;28;20103;-72
2023/12/04 07:35:26;;;;;;;71.63;29.70;;;0.20;99.90;;;;;;5091887;28;20035;-73
2023/12/04 07:37:52;;;;;;;62.50;28.77;;;0.20;99.90;;;;;;5091357;28;20035;-74
2023/12/04 07:40:18;;;;;;;69.28;29.50;;;0.20;99.90;;;;;;5091327;28;20043;-73
2023/12/04 07:42:43;;;;;;;65.32;28.88;;;0.40;99.90;;;;;;5092322;28;20017;-74
2023/12/04 07:45:10;;;;;;;63.88;29.23;;;0.30;99.90;;;;;;5091671;28;20486;-74
2023/12/04 07:47:36;;;;;;;64.60;27.80;;;0.30;99.90;;;;;;5091332;28;20017;-73
2023/12/04 07:50:02;;;;;;;67.20;29.13;;;0.40;99.90;;;;;;5091455;28;20103;-72
2023/12/04 07:52:27;;;;;;;68.72;29.17;;;0.40;99.90;;;;;;5092254;28;20516;-75
2023/12/04 07:54:53;;;;;;;62.78;27.73;;;0.40;99.90;;;;;;5092318;28;20028;-73
2023/12/04 07:57:19;;;;;;;63.95;29.42;;;0.40;99.90;;;;;;5101654;28;20020;-73
2023/12/04 07:59:44;;;;;;;63.50;28.30;;;0.40;99.90;;;;;;5115516;28;20044;-75
2023/12/04 08:02:11;;;;;;;61.83;27.42;;;0.30;99.90;;;;;;5115092;28;20052;-73
2023/12/04 08:04:37;;;;;;;62.38;27.33;;;0.40;99.90;;;;;;5115252;28;20069;-73
2023/12/04 08:07:03;;;;;;;62.22;29.27;;;0.40;99.90;;;;;;5115891;28;20020;-73
2023/12/04 08:09:28;;;;;;;68.45;28.40;;;0.40;99.90;;;;;;5114573;28;20024;-74
2023/12/04 08:11:54;;;;;;;63.78;28.73;;;0.50;99.90;;;;;;5109959;28;20012;-73
2023/12/04 08:14:19;;;;;;;61.83;27.63;;;0.60;99.90;;;;;;5110709;28;20027;-73
2023/12/04 08:16:45;;;;;;;55.88;26.70;;;0.90;99.90;;;;;;5114776;28;20056;-72
2023/12/04 08:19:11;;;;;;;63.35;27.30;;;0.70;99.90;;;;;;5111537;28;20041;-73
2023/12/04 08:21:37;;;;;;;65.03;29.02;;;0.80;99.90;;;;;;5098104;28;20020;-75
2023/12/04 08:24:03;;;;;;;55.10;26.10;;;0.80;99.90;;;;;;5092233;28;20046;-72
2023/12/04 08:26:28;;;;;;;61.90;27.25;;;0.70;99.90;;;;;;5092554;28;20066;-74
2023/12/04 08:28:54;;;;;;;60.50;27.50;;;0.70;99.90;;;;;;5091758;28;20030;-73
2023/12/04 08:31:19;;;;;;;59.95;26.55;;;0.70;99.90;;;;;;5090786;28;20086;-74
2023/12/04 08:33:45;;;;;;;64.40;28.50;;;0.70;99.90;;;;;;5091544;28;20463;-75
2023/12/04 08:36:11;;;;;;;64.18;28.35;;;0.70;99.90;;;;;;5091567;28;20103;-74
2023/12/04 08:38:37;;;;;;;66.40;28.17;;;0.70;99.90;;;;;;5090670;28;20448;-74
2023/12/04 08:41:04;;;;;;;64.13;27.75;;;0.70;99.90;;;;;;5090932;28;20016;-73
2023/12/04 08:43:30;;;;;;;58.08;28.90;;;0.80;99.90;;;;;;5091026;28;20024;-74
2023/12/04 08:45:56;;;;;;;64.85;28.77;;;0.70;99.90;;;;;;5091853;28;20024;-75
2023/12/04 08:48:21;;;;;;;64.38;29.50;;;0.70;99.90;;;;;;5091543;28;20031;-73
2023/12/04 08:50:48;;;;;;;81.50;36.25;;;0.80;99.90;;;;;;5097713;28;20020;-73
2023/12/04 08:53:14;;;;;;;66.03;28.95;;;0.80;99.90;;;;;;5093952;28;20581;-73
2023/12/04 08:55:40;;;;;;;60.28;28.15;;;0.80;99.90;;;;;;5091079;28;20502;-73
2023/12/04 08:58:05;;;;;;;68.60;29.38;;;0.80;99.90;;;;;;5090398;28;20024;-72
2023/12/04 09:00:32;;;;;;;63.83;28.50;;;0.80;99.90;;;;;;5090818;28;20031;-73
2023/12/04 09:02:57;;;;;;;63.20;28.52;;;0.80;99.90;;;;;;5092667;28;20028;-73
2023/12/04 09:05:23;;;;;;;61.25;29.05;;;0.80;99.90;;;;;;5099232;28;20701;-73
2023/12/04 09:07:48;;;;;;;61.05;28.33;;;0.80;99.90;;;;;;5092794;28;20043;-73
2023/12/04 09:10:14;;;;;;;66.50;29.67;;;0.80;99.90;;;;;;5097580;28;20521;-73
2023/12/04 09:12:40;;;;;;;64.05;29.58;;;0.80;99.90;;;;;;5080384;28;20032;-73
2023/12/04 09:15:07;;;;;;;66.13;29.35;;;0.80;99.90;;;;;;5094285;28;20024;-72
2023/12/04 09:17:33;;;;;;;62.70;27.92;;;0.90;99.90;;;;;;5094090;28;20048;-73
2023/12/04 09:19:58;;;;;;;70.40;31.63;;;0.80;99.90;;;;;;5093938;28;20089;-73
2023/12/04 09:22:24;;;;;;;63.15;30.15;;;0.80;99.90;;;;;;5095066;28;20403;-73
2023/12/04 09:24:51;;;;;;;62.78;29.17;;;0.80;99.90;;;;;;5098544;28;20036;-74
2023/12/04 09:27:17;;;;;;;65.63;29.80;;;0.80;99.90;;;;;;5098060;28;20547;-74
2023/12/04 09:29:42;;;;;;;69.80;31.33;;;0.80;99.90;;;;;;5094238;28;20055;-73
2023/12/04 09:32:09;;;;;;;67.68;31.17;;;0.80;99.90;;;;;;5094524;28;20028;-74
2023/12/04 09:34:35;;;;;;;63.00;30.05;;;0.80;99.90;;;;;;5094158;28;20088;-73
2023/12/04 09:37:01;;;;;;;66.80;31.05;;;0.80;99.90;;;;;;5093468;28;20103;-73
2023/12/04 09:39:27;;;;;;;67.47;30.55;;;0.80;99.90;;;;;;5094820;28;20028;-74
2023/12/04 09:41:54;;;;;;;67.93;30.05;;;0.80;99.90;;;;;;5092868;28;20032;-73
2023/12/04 09:44:22;;;;;;;60.05;28.90;;;0.80;99.90;;;;;;5094056;28;20020;-72
2023/12/04 09:46:47;;;;;;;65.85;30.33;;;0.90;99.90;;;;;;5094372;28;20023;-74
2023/12/04 09:49:14;;;;;;;67.75;30.58;;;0.90;99.90;;;;;;5094099;28;20031;-74
2023/12/04 09:51:39;;;;;;;65.07;30.05;;;0.90;99.90;;;;;;5093604;28;20028;-74
2023/12/04 09:54:06;;;;;;;68.85;32.08;;;0.90;99.90;;;;;;5093806;28;20116;-73
2023/12/04 09:56:34;;;;;;;68.95;32.30;;;0.90;99.90;;;;;;5093521;28;20495;-72
2023/12/04 09:59:00;;;;;;;63.22;29.67;;;0.90;99.90;;;;;;5093399;28;20114;-73
2023/12/04 10:01:28;;;;;;;63.15;29.90;;;1.00;99.90;;;;;;5094414;28;20478;-72
2023/12/04 10:03:57;;;;;;;64.65;30.55;;;0.90;99.90;;;;;;5096474;28;20031;-73
2023/12/04 10:06:26;;;;;;;63.90;29.83;;;1.00;99.90;;;;;;5096324;28;20108;-73
2023/12/04 10:08:52;;;;;;;61.60;29.90;;;1.10;99.90;;;;;;5094232;28;20034;-73
2023/12/04 10:11:17;;;;;;;61.58;29.65;;;1.00;99.90;;;;;;5094653;28;20095;-74
2023/12/04 10:13:43;;;;;;;58.22;28.75;;;1.10;99.90;;;;;;5093090;28;20111;-74
2023/12/04 10:16:08;;;;;;;62.92;29.95;;;1.10;99.90;;;;;;5091805;28;20027;-72
2023/12/04 10:18:34;;;;;;;64.80;30.63;;;1.10;99.90;;;;;;5092806;28;20475;-73
2023/12/04 10:21:02;;;;;;;64.43;29.52;;;1.20;99.90;;;;;;5093113;28;20024;-74
2023/12/04 10:23:39;;;;;;;61.13;28.38;;;1.20;99.90;;;;;;5093113;28;20099;-74
2023/12/04 10:26:05;;;;;;;62.38;30.40;;;1.20;99.90;;;;;;5093049;28;20024;-73
2023/12/04 10:28:31;;;;;;;60.17;29.05;;;1.30;99.90;;;;;;5093057;28;20020;-74
2023/12/04 10:30:57;;;;;;;59.55;28.92;;;1.30;99.90;;;;;;5095131;28;20036;-74
2023/12/04 10:33:28;;;;;;;56.85;27.35;;;1.30;99.90;;;;;;5094049;28;20134;-73
2023/12/04 10:35:53;;;;;;;61.00;29.13;;;1.40;99.90;;;;;;5092872;28;20102;-72
2023/12/04 10:38:19;;;;;;;60.15;28.63;;;1.40;99.90;;;;;;5092535;28;20452;-73
2023/12/04 10:40:44;;;;;;;68.18;31.58;;;1.50;99.90;;;;;;5092825;28;20436;-75
2023/12/04 10:43:17;;;;;;;63.55;29.48;;;1.40;99.90;;;;;;5092920;28;20020;-73
2023/12/04 10:45:45;;;;;;;58.53;27.90;;;1.50;99.90;;;;;;5093857;28;20020;-76
2023/12/04 10:48:12;;;;;;;61.00;28.00;;;1.50;99.90;;;;;;5093218;28;20016;-75
2023/12/04 10:50:39;;;;;;;63.95;28.92;;;1.50;99.90;;;;;;5095020;28;20028;-75
2023/12/04 10:53:09;;;;;;;56.38;27.40;;;1.60;99.90;;;;;;5097581;28;20024;-75
2023/12/04 10:55:35;;;;;;;63.15;27.35;;;1.50;99.90;;;;;;5079217;28;20524;-75
2023/12/04 10:58:05;;;;;;;60.75;27.88;;;1.50;99.90;;;;;;5104840;28;20064;-75
2023/12/04 11:00:33;;;;;;;60.00;28.60;;;1.60;99.90;;;;;;5115095;28;20435;-75
2023/12/04 11:03:09;;;;;;;51.28;25.83;;;1.60;99.90;;;;;;5116105;28;20045;-74
2023/12/04 11:05:40;;;;;;;61.80;27.10;;;1.60;99.90;;;;;;5115626;28;20099;-75
2023/12/04 11:08:08;;;;;;;53.95;26.08;;;1.60;99.90;;;;;;5114969;28;20016;-74
2023/12/04 11:10:40;;;;;;;54.58;26.65;;;1.70;99.90;;;;;;5113349;28;20525;-74
2023/12/04 11:13:12;;;;;;;57.15;27.60;;;1.70;99.90;;;;;;5112148;28;20085;-73
2023/12/04 11:15:41;;;;;;;53.97;26.10;;;1.70;99.90;;;;;;5112620;28;20101;-74
2023/12/04 11:18:09;;;;;;;52.95;25.95;;;1.70;99.30;;;;;;5112419;28;20131;-73
2023/12/04 11:20:40;;;;;;;53.38;27.83;;;1.70;99.60;;;;;;5112165;28;20031;-74
2023/12/04 11:23:07;;;;;;;59.25;26.88;;;1.70;99.50;;;;;;5112086;28;20020;-74
2023/12/04 11:25:34;;;;;;;58.25;27.55;;;1.90;99.80;;;;;;5110698;28;20535;-74
2023/12/04 11:28:01;;;;;;;55.90;27.55;;;1.70;99.10;;;;;;5112237;28;20019;-74
2023/12/04 11:30:29;;;;;;;56.17;26.40;;;1.70;99.80;;;;;;5112434;28;20052;-73
2023/12/04 11:32:57;;;;;;;53.47;25.90;;;1.70;99.50;;;;;;5115184;28;20073;-74
2023/12/04 11:35:26;;;;;;;53.55;25.42;;;1.60;99.50;;;;;;5098589;28;20501;-75
2023/12/04 11:37:52;;;;;;;52.47;26.27;;;1.60;99.90;;;;;;5118202;28;20015;-75
2023/12/04 11:40:18;;;;;;;52.45;26.08;;;1.60;99.20;;;;;;5118901;28;20024;-75
2023/12/04 11:42:44;;;;;;;53.97;25.73;;;1.70;98.60;;;;;;5115112;28;20069;-74
2023/12/04 11:45:10;;;;;;;53.80;26.10;;;1.60;98.40;;;;;;5113350;28;20560;-74
2023/12/04 11:47:59;;;;;;;50.13;25.02;;;1.70;98.60;;;;;;5111419;28;20024;-74
2023/12/04 11:50:25;;;;;;;55.85;25.92;;;1.70;98.90;;;;;;5111992;28;20401;-75
2023/12/04 11:52:51;;;;;;;50.60;25.55;;;1.70;99.10;;;;;;5111653;28;20028;-75
2023/12/04 11:55:26;;;;;;;52.30;25.73;;;1.70;99.90;;;;;;5111684;28;20481;-75
2023/12/04 11:57:54;;;;;;;49.13;24.98;;;1.80;98.50;;;;;;5112244;28;20028;-75
2023/12/04 12:00:22;;;;;;;46.92;23.77;;;1.80;96.70;;;;;;5111509;28;20032;-76
2023/12/04 12:02:53;;;;;;;56.15;26.90;;;1.70;96.10;;;;;;5111554;28;20030;-75
2023/12/04 12:05:23;;;;;;;55.97;26.13;;;1.70;97.70;;;;;;5112019;28;20091;-74
2023/12/04 12:07:49;;;;;;;51.25;24.80;;;1.70;97.90;;;;;;5111601;28;20020;-74
2023/12/04 12:10:16;;;;;;;54.63;26.63;;;1.60;97.90;;;;;;5111711;28;20028;-74
2023/12/04 12:12:45;;;;;;;48.75;24.90;;;1.60;98.70;;;;;;5114599;28;20084;-73
2023/12/04 12:15:12;;;;;;;48.40;24.75;;;1.60;98.10;;;;;;5112047;28;20056;-74
2023/12/04 12:17:39;;;;;;;50.28;24.60;;;1.60;97.70;;;;;;5112502;28;20024;-74
2023/12/04 12:20:07;;;;;;;48.15;23.95;;;1.60;98.20;;;;;;5112899;28;20032;-74
2023/12/04 12:22:36;;;;;;;56.70;26.08;;;1.60;98.50;;;;;;5112584;28;20012;-76
2023/12/04 12:25:06;;;;;;;51.33;24.13;;;1.60;98.80;;;;;;5112211;28;20020;-75
2023/12/04 12:27:32;;;;;;;51.60;25.02;;;1.70;97.50;;;;;;5111623;28;20016;-74
2023/12/04 12:29:58;;;;;;;51.00;23.85;;;1.70;96.10;;;;;;5111586;28;20028;-74